sensor_id;sensor_type;location;lat;lon;timestamp;pressure;altitude;pressure_sealevel;temperature;humidity
48810;BME280;40070;47.322;18.784;2023-01-29T00:00:43;1010.44;;;1.19;73.34
48810;BME280;40070;47.322;18.784;2023-01-29T00:02:45;1010.46;;;1.25;73.22
48810;BME280;40070;47.322;18.784;2023-01-29T00:04:48;1010.46;;;1.08;73.52
48810;BME280;40070;47.322;18.784;2023-01-29T00:06:50;1010.43;;;1.27;73.18
48810;BME280;40070;47.322;18.784;2023-01-29T00:08:52;1010.45;;;1.22;72.97
48810;BME280;40070;47.322;18.784;2023-01-29T00:11:02;1010.42;;;1.38;72.58
48810;BME280;40070;47.322;18.784;2023-01-29T00:13:04;1010.46;;;1.32;72.63
48810;BME280;40070;47.322;18.784;2023-01-29T00:15:06;1010.44;;;1.30;72.52
48810;BME280;40070;47.322;18.784;2023-01-29T00:17:09;1010.46;;;1.29;72.53
48810;BME280;40070;47.322;18.784;2023-01-29T00:19:11;1010.50;;;1.31;72.60
48810;BME280;40070;47.322;18.784;2023-01-29T00:21:15;1010.50;;;1.10;72.75
48810;BME280;40070;47.322;18.784;2023-01-29T00:23:17;1010.52;;;1.27;72.62
48810;BME280;40070;47.322;18.784;2023-01-29T00:25:20;1010.46;;;1.35;72.55
48810;BME280;40070;47.322;18.784;2023-01-29T00:27:22;1010.50;;;1.52;71.42
48810;BME280;40070;47.322;18.784;2023-01-29T00:29:24;1010.54;;;1.45;71.89
48810;BME280;40070;47.322;18.784;2023-01-29T00:31:27;1010.60;;;1.25;72.30
48810;BME280;40070;47.322;18.784;2023-01-29T00:33:29;1010.64;;;1.22;72.57
48810;BME280;40070;47.322;18.784;2023-01-29T00:35:32;1010.59;;;1.35;72.05
48810;BME280;40070;47.322;18.784;2023-01-29T00:37:34;1010.59;;;1.40;71.81
48810;BME280;40070;47.322;18.784;2023-01-29T00:39:37;1010.60;;;1.40;71.82
48810;BME280;40070;47.322;18.784;2023-01-29T00:41:39;1010.59;;;1.41;72.04
48810;BME280;40070;47.322;18.784;2023-01-29T00:43:41;1010.62;;;1.54;71.55
48810;BME280;40070;47.322;18.784;2023-01-29T00:45:44;1010.67;;;1.45;71.30
48810;BME280;40070;47.322;18.784;2023-01-29T00:47:46;1010.70;;;1.41;71.94
48810;BME280;40070;47.322;18.784;2023-01-29T00:49:49;1010.73;;;1.41;71.70
48810;BME280;40070;47.322;18.784;2023-01-29T00:51:51;1010.74;;;1.46;71.62
48810;BME280;40070;47.322;18.784;2023-01-29T00:53:53;1010.75;;;1.37;71.48
48810;BME280;40070;47.322;18.784;2023-01-29T00:55:56;1010.75;;;1.35;71.82
48810;BME280;40070;47.322;18.784;2023-01-29T00:57:58;1010.75;;;1.27;71.90
48810;BME280;40070;47.322;18.784;2023-01-29T01:00:01;1010.76;;;1.30;71.92
48810;BME280;40070;47.322;18.784;2023-01-29T01:02:03;1010.80;;;1.17;72.26
48810;BME280;40070;47.322;18.784;2023-01-29T01:04:06;1010.81;;;1.28;72.28
48810;BME280;40070;47.322;18.784;2023-01-29T01:06:09;1010.80;;;1.22;72.36
48810;BME280;40070;47.322;18.784;2023-01-29T01:08:11;1010.76;;;1.19;72.34
48810;BME280;40070;47.322;18.784;2023-01-29T01:10:15;1010.73;;;1.12;72.60
48810;BME280;40070;47.322;18.784;2023-01-29T01:12:18;1010.76;;;1.22;72.61
48810;BME280;40070;47.322;18.784;2023-01-29T01:14:20;1010.67;;;1.36;72.39
48810;BME280;40070;47.322;18.784;2023-01-29T01:16:23;1010.67;;;1.35;71.98
48810;BME280;40070;47.322;18.784;2023-01-29T01:18:28;1010.66;;;1.38;71.83
48810;BME280;40070;47.322;18.784;2023-01-29T01:20:32;1010.65;;;1.37;72.04
48810;BME280;40070;47.322;18.784;2023-01-29T01:22:34;1010.61;;;1.50;71.35
48810;BME280;40070;47.322;18.784;2023-01-29T01:24:37;1010.65;;;1.42;71.36
48810;BME280;40070;47.322;18.784;2023-01-29T01:26:39;1010.57;;;1.47;71.40
48810;BME280;40070;47.322;18.784;2023-01-29T01:28:42;1010.60;;;1.71;70.73
48810;BME280;40070;47.322;18.784;2023-01-29T01:30:45;1010.58;;;1.77;70.56
48810;BME280;40070;47.322;18.784;2023-01-29T01:32:47;1010.65;;;1.71;70.67
48810;BME280;40070;47.322;18.784;2023-01-29T01:34:50;1010.68;;;1.69;70.73
48810;BME280;40070;47.322;18.784;2023-01-29T01:36:53;1010.70;;;1.92;70.14
48810;BME280;40070;47.322;18.784;2023-01-29T01:38:56;1010.72;;;2.00;69.52
48810;BME280;40070;47.322;18.784;2023-01-29T01:40:58;1010.73;;;2.14;68.91
48810;BME280;40070;47.322;18.784;2023-01-29T01:43:00;1010.75;;;2.19;69.35
48810;BME280;40070;47.322;18.784;2023-01-29T01:45:03;1010.72;;;2.20;68.89
48810;BME280;40070;47.322;18.784;2023-01-29T01:47:06;1010.78;;;1.94;69.41
48810;BME280;40070;47.322;18.784;2023-01-29T01:49:10;1010.87;;;2.07;69.03
48810;BME280;40070;47.322;18.784;2023-01-29T01:51:15;1010.89;;;1.88;69.18
48810;BME280;40070;47.322;18.784;2023-01-29T01:53:20;1010.94;;;1.86;69.31
48810;BME280;40070;47.322;18.784;2023-01-29T01:55:24;1010.93;;;1.83;69.42
48810;BME280;40070;47.322;18.784;2023-01-29T01:57:28;1010.99;;;1.76;69.89
48810;BME280;40070;47.322;18.784;2023-01-29T01:59:31;1010.98;;;1.67;69.76
48810;BME280;40070;47.322;18.784;2023-01-29T02:01:35;1011.00;;;1.62;70.23
48810;BME280;40070;47.322;18.784;2023-01-29T02:03:39;1011.02;;;1.51;69.93
48810;BME280;40070;47.322;18.784;2023-01-29T02:05:44;1011.01;;;1.46;70.63
48810;BME280;40070;47.322;18.784;2023-01-29T02:07:46;1010.96;;;1.39;70.40
48810;BME280;40070;47.322;18.784;2023-01-29T02:12:06;1011.00;;;1.67;69.57
48810;BME280;40070;47.322;18.784;2023-01-29T02:14:09;1011.01;;;1.67;69.97
48810;BME280;40070;47.322;18.784;2023-01-29T02:16:11;1011.03;;;1.53;70.42
48810;BME280;40070;47.322;18.784;2023-01-29T02:18:15;1011.10;;;1.57;70.21
48810;BME280;40070;47.322;18.784;2023-01-29T02:20:36;1011.06;;;1.59;69.83
48810;BME280;40070;47.322;18.784;2023-01-29T02:25:00;1011.08;;;1.53;70.18
48810;BME280;40070;47.322;18.784;2023-01-29T02:29:22;1011.13;;;1.55;70.04
48810;BME280;40070;47.322;18.784;2023-01-29T02:31:31;1011.12;;;1.29;70.85
48810;BME280;40070;47.322;18.784;2023-01-29T02:36:03;1011.14;;;1.30;70.92
48810;BME280;40070;47.322;18.784;2023-01-29T02:40:30;1011.10;;;1.42;70.22
48810;BME280;40070;47.322;18.784;2023-01-29T02:42:48;1011.15;;;1.44;70.19
48810;BME280;40070;47.322;18.784;2023-01-29T02:44:54;1011.11;;;1.59;70.04
48810;BME280;40070;47.322;18.784;2023-01-29T02:47:03;1011.15;;;1.58;69.63
48810;BME280;40070;47.322;18.784;2023-01-29T02:51:46;1011.16;;;1.60;69.32
48810;BME280;40070;47.322;18.784;2023-01-29T02:53:51;1011.12;;;1.71;69.12
48810;BME280;40070;47.322;18.784;2023-01-29T02:56:01;1011.14;;;1.82;68.56
48810;BME280;40070;47.322;18.784;2023-01-29T02:58:26;1011.18;;;1.73;68.57
48810;BME280;40070;47.322;18.784;2023-01-29T03:00:20;1011.17;;;1.86;68.65
48810;BME280;40070;47.322;18.784;2023-01-29T03:02:25;1011.23;;;1.66;68.84
48810;BME280;40070;47.322;18.784;2023-01-29T03:04:32;1011.26;;;1.54;69.25
48810;BME280;40070;47.322;18.784;2023-01-29T03:06:38;1011.27;;;1.55;69.41
48810;BME280;40070;47.322;18.784;2023-01-29T03:08:46;1011.30;;;1.37;69.64
48810;BME280;40070;47.322;18.784;2023-01-29T03:10:55;1011.35;;;1.54;69.41
48810;BME280;40070;47.322;18.784;2023-01-29T03:13:01;1011.35;;;1.56;69.22
48810;BME280;40070;47.322;18.784;2023-01-29T03:15:14;1011.32;;;1.64;68.95
48810;BME280;40070;47.322;18.784;2023-01-29T03:17:19;1011.37;;;1.63;69.27
48810;BME280;40070;47.322;18.784;2023-01-29T03:19:29;1011.34;;;1.61;69.16
48810;BME280;40070;47.322;18.784;2023-01-29T03:21:38;1011.36;;;1.67;69.30
48810;BME280;40070;47.322;18.784;2023-01-29T03:23:41;1011.31;;;1.85;68.74
48810;BME280;40070;47.322;18.784;2023-01-29T03:25:44;1011.41;;;1.85;68.53
48810;BME280;40070;47.322;18.784;2023-01-29T03:27:47;1011.36;;;1.62;68.65
48810;BME280;40070;47.322;18.784;2023-01-29T03:29:50;1011.37;;;1.68;69.04
48810;BME280;40070;47.322;18.784;2023-01-29T03:31:55;1011.38;;;1.48;69.55
48810;BME280;40070;47.322;18.784;2023-01-29T03:34:20;1011.34;;;1.48;69.70
48810;BME280;40070;47.322;18.784;2023-01-29T03:36:17;1011.40;;;1.38;70.33
48810;BME280;40070;47.322;18.784;2023-01-29T03:38:21;1011.38;;;1.51;69.92
48810;BME280;40070;47.322;18.784;2023-01-29T03:40:23;1011.38;;;1.72;69.33
48810;BME280;40070;47.322;18.784;2023-01-29T03:42:27;1011.43;;;1.87;68.82
48810;BME280;40070;47.322;18.784;2023-01-29T03:44:53;1011.45;;;1.94;68.43
48810;BME280;40070;47.322;18.784;2023-01-29T03:47:13;1011.43;;;1.72;69.09
48810;BME280;40070;47.322;18.784;2023-01-29T03:49:20;1011.47;;;1.64;69.09
48810;BME280;40070;47.322;18.784;2023-01-29T03:51:31;1011.43;;;1.57;69.57
48810;BME280;40070;47.322;18.784;2023-01-29T03:53:46;1011.47;;;1.56;69.65
48810;BME280;40070;47.322;18.784;2023-01-29T03:55:56;1011.51;;;1.67;69.34
48810;BME280;40070;47.322;18.784;2023-01-29T03:58:03;1011.55;;;1.68;69.06
48810;BME280;40070;47.322;18.784;2023-01-29T04:02:29;1011.58;;;1.84;69.07
48810;BME280;40070;47.322;18.784;2023-01-29T04:04:33;1011.51;;;1.76;68.92
48810;BME280;40070;47.322;18.784;2023-01-29T04:06:36;1011.53;;;1.63;69.12
48810;BME280;40070;47.322;18.784;2023-01-29T04:08:44;1011.55;;;1.70;68.97
48810;BME280;40070;47.322;18.784;2023-01-29T04:10:48;1011.55;;;1.56;69.25
48810;BME280;40070;47.322;18.784;2023-01-29T04:12:55;1011.53;;;1.61;69.17
48810;BME280;40070;47.322;18.784;2023-01-29T04:14:59;1011.51;;;1.71;68.92
48810;BME280;40070;47.322;18.784;2023-01-29T04:17:14;1011.53;;;1.68;68.60
48810;BME280;40070;47.322;18.784;2023-01-29T04:19:17;1011.53;;;1.73;68.62
48810;BME280;40070;47.322;18.784;2023-01-29T04:21:19;1011.51;;;1.62;68.53
48810;BME280;40070;47.322;18.784;2023-01-29T04:23:23;1011.49;;;1.74;68.13
48810;BME280;40070;47.322;18.784;2023-01-29T04:25:29;1011.48;;;1.73;67.93
48810;BME280;40070;47.322;18.784;2023-01-29T04:27:41;1011.48;;;1.69;67.93
48810;BME280;40070;47.322;18.784;2023-01-29T04:30:09;1011.48;;;1.73;67.61
48810;BME280;40070;47.322;18.784;2023-01-29T04:32:17;1011.40;;;2.00;67.01
48810;BME280;40070;47.322;18.784;2023-01-29T04:34:27;1011.46;;;2.02;66.57
48810;BME280;40070;47.322;18.784;2023-01-29T04:36:37;1011.46;;;1.89;66.86
48810;BME280;40070;47.322;18.784;2023-01-29T04:41:15;1011.39;;;1.94;67.32
48810;BME280;40070;47.322;18.784;2023-01-29T04:43:22;1011.45;;;1.94;67.10
48810;BME280;40070;47.322;18.784;2023-01-29T04:45:34;1011.48;;;2.07;67.16
48810;BME280;40070;47.322;18.784;2023-01-29T04:47:49;1011.51;;;1.91;67.07
48810;BME280;40070;47.322;18.784;2023-01-29T04:54:45;1011.50;;;2.02;67.25
48810;BME280;40070;47.322;18.784;2023-01-29T04:59:08;1011.54;;;1.85;67.95
48810;BME280;40070;47.322;18.784;2023-01-29T05:01:14;1011.50;;;1.75;68.28
48810;BME280;40070;47.322;18.784;2023-01-29T05:03:17;1011.51;;;1.91;67.91
48810;BME280;40070;47.322;18.784;2023-01-29T05:05:21;1011.48;;;1.95;67.80
48810;BME280;40070;47.322;18.784;2023-01-29T05:07:23;1011.51;;;1.96;67.83
48810;BME280;40070;47.322;18.784;2023-01-29T05:09:27;1011.52;;;1.89;67.92
48810;BME280;40070;47.322;18.784;2023-01-29T05:11:30;1011.53;;;1.66;68.54
48810;BME280;40070;47.322;18.784;2023-01-29T05:13:33;1011.55;;;1.62;69.16
48810;BME280;40070;47.322;18.784;2023-01-29T05:15:38;1011.53;;;1.92;68.23
48810;BME280;40070;47.322;18.784;2023-01-29T05:17:41;1011.49;;;1.83;68.26
48810;BME280;40070;47.322;18.784;2023-01-29T05:19:44;1011.54;;;1.92;68.09
48810;BME280;40070;47.322;18.784;2023-01-29T05:21:47;1011.52;;;1.98;67.91
48810;BME280;40070;47.322;18.784;2023-01-29T05:24:21;1011.54;;;2.04;67.72
48810;BME280;40070;47.322;18.784;2023-01-29T05:26:20;1011.54;;;2.14;67.66
48810;BME280;40070;47.322;18.784;2023-01-29T05:28:23;1011.58;;;1.87;68.04
48810;BME280;40070;47.322;18.784;2023-01-29T05:30:25;1011.59;;;1.97;67.94
48810;BME280;40070;47.322;18.784;2023-01-29T05:32:27;1011.49;;;2.08;67.70
48810;BME280;40070;47.322;18.784;2023-01-29T05:34:30;1011.51;;;2.34;67.03
48810;BME280;40070;47.322;18.784;2023-01-29T05:36:32;1011.50;;;1.99;68.07
48810;BME280;40070;47.322;18.784;2023-01-29T05:38:34;1011.44;;;2.26;67.48
48810;BME280;40070;47.322;18.784;2023-01-29T05:40:37;1011.44;;;2.51;66.79
48810;BME280;40070;47.322;18.784;2023-01-29T05:42:40;1011.53;;;2.40;67.03
48810;BME280;40070;47.322;18.784;2023-01-29T05:44:42;1011.54;;;2.29;67.52
48810;BME280;40070;47.322;18.784;2023-01-29T05:46:44;1011.56;;;2.25;67.37
48810;BME280;40070;47.322;18.784;2023-01-29T05:48:47;1011.56;;;2.34;67.14
48810;BME280;40070;47.322;18.784;2023-01-29T05:50:49;1011.63;;;2.10;68.16
48810;BME280;40070;47.322;18.784;2023-01-29T05:52:58;1011.66;;;1.92;68.54
48810;BME280;40070;47.322;18.784;2023-01-29T05:55:01;1011.67;;;1.98;68.50
48810;BME280;40070;47.322;18.784;2023-01-29T05:57:03;1011.59;;;2.06;68.68
48810;BME280;40070;47.322;18.784;2023-01-29T05:59:06;1011.59;;;2.09;68.44
48810;BME280;40070;47.322;18.784;2023-01-29T06:01:12;1011.61;;;2.10;68.41
48810;BME280;40070;47.322;18.784;2023-01-29T06:03:15;1011.64;;;2.08;68.52
48810;BME280;40070;47.322;18.784;2023-01-29T06:05:17;1011.62;;;1.87;68.92
48810;BME280;40070;47.322;18.784;2023-01-29T06:07:20;1011.65;;;1.65;69.40
48810;BME280;40070;47.322;18.784;2023-01-29T06:09:22;1011.66;;;1.74;69.63
48810;BME280;40070;47.322;18.784;2023-01-29T06:11:24;1011.68;;;1.90;69.20
48810;BME280;40070;47.322;18.784;2023-01-29T06:13:27;1011.72;;;1.84;69.33
48810;BME280;40070;47.322;18.784;2023-01-29T06:15:29;1011.75;;;1.64;69.70
48810;BME280;40070;47.322;18.784;2023-01-29T06:17:32;1011.77;;;1.56;70.13
48810;BME280;40070;47.322;18.784;2023-01-29T06:19:34;1011.76;;;1.57;70.27
48810;BME280;40070;47.322;18.784;2023-01-29T06:21:36;1011.77;;;1.34;70.87
48810;BME280;40070;47.322;18.784;2023-01-29T06:23:39;1011.76;;;1.41;70.40
48810;BME280;40070;47.322;18.784;2023-01-29T06:25:41;1011.82;;;1.33;70.65
48810;BME280;40070;47.322;18.784;2023-01-29T06:27:44;1011.89;;;1.46;70.62
48810;BME280;40070;47.322;18.784;2023-01-29T06:29:46;1011.91;;;1.49;70.37
48810;BME280;40070;47.322;18.784;2023-01-29T06:31:48;1011.95;;;1.43;70.31
48810;BME280;40070;47.322;18.784;2023-01-29T06:33:51;1011.99;;;1.45;70.62
48810;BME280;40070;47.322;18.784;2023-01-29T06:36:00;1012.05;;;1.35;70.90
48810;BME280;40070;47.322;18.784;2023-01-29T06:38:03;1012.06;;;1.57;70.51
48810;BME280;40070;47.322;18.784;2023-01-29T06:40:05;1012.05;;;1.55;70.25
48810;BME280;40070;47.322;18.784;2023-01-29T06:42:08;1012.15;;;1.46;70.53
48810;BME280;40070;47.322;18.784;2023-01-29T06:44:10;1012.21;;;1.48;70.57
48810;BME280;40070;47.322;18.784;2023-01-29T06:46:13;1012.19;;;1.39;70.95
48810;BME280;40070;47.322;18.784;2023-01-29T06:48:15;1012.18;;;1.40;70.21
48810;BME280;40070;47.322;18.784;2023-01-29T06:50:18;1012.17;;;1.18;70.78
48810;BME280;40070;47.322;18.784;2023-01-29T06:52:20;1012.21;;;1.32;71.05
48810;BME280;40070;47.322;18.784;2023-01-29T06:54:22;1012.28;;;1.56;69.65
48810;BME280;40070;47.322;18.784;2023-01-29T06:56:25;1012.26;;;1.35;69.57
48810;BME280;40070;47.322;18.784;2023-01-29T06:58:27;1012.27;;;1.49;69.36
48810;BME280;40070;47.322;18.784;2023-01-29T07:00:29;1012.28;;;1.32;68.92
48810;BME280;40070;47.322;18.784;2023-01-29T07:02:32;1012.26;;;1.25;68.96
48810;BME280;40070;47.322;18.784;2023-01-29T07:04:34;1012.28;;;1.38;68.60
48810;BME280;40070;47.322;18.784;2023-01-29T07:06:36;1012.31;;;1.47;68.05
48810;BME280;40070;47.322;18.784;2023-01-29T07:08:39;1012.29;;;1.29;68.47
48810;BME280;40070;47.322;18.784;2023-01-29T07:10:41;1012.31;;;1.45;68.22
48810;BME280;40070;47.322;18.784;2023-01-29T07:12:43;1012.31;;;1.30;68.57
48810;BME280;40070;47.322;18.784;2023-01-29T07:14:46;1012.30;;;1.72;67.58
48810;BME280;40070;47.322;18.784;2023-01-29T07:16:48;1012.29;;;1.63;67.65
48810;BME280;40070;47.322;18.784;2023-01-29T07:18:50;1012.31;;;1.69;67.29
48810;BME280;40070;47.322;18.784;2023-01-29T07:20:53;1012.32;;;1.64;67.15
48810;BME280;40070;47.322;18.784;2023-01-29T07:22:56;1012.30;;;1.67;67.10
48810;BME280;40070;47.322;18.784;2023-01-29T07:24:59;1012.35;;;1.72;66.91
48810;BME280;40070;47.322;18.784;2023-01-29T07:27:01;1012.33;;;1.68;66.68
48810;BME280;40070;47.322;18.784;2023-01-29T07:29:03;1012.30;;;1.60;66.81
48810;BME280;40070;47.322;18.784;2023-01-29T07:31:06;1012.28;;;1.47;66.90
48810;BME280;40070;47.322;18.784;2023-01-29T07:33:09;1012.17;;;1.48;67.57
48810;BME280;40070;47.322;18.784;2023-01-29T07:35:11;1012.09;;;1.60;67.43
48810;BME280;40070;47.322;18.784;2023-01-29T07:37:14;1012.16;;;1.60;67.25
48810;BME280;40070;47.322;18.784;2023-01-29T07:39:16;1012.10;;;1.42;67.35
48810;BME280;40070;47.322;18.784;2023-01-29T07:41:19;1012.11;;;1.49;67.31
48810;BME280;40070;47.322;18.784;2023-01-29T07:43:21;1012.05;;;1.56;67.21
48810;BME280;40070;47.322;18.784;2023-01-29T07:45:23;1011.96;;;1.50;67.19
48810;BME280;40070;47.322;18.784;2023-01-29T07:47:26;1011.99;;;1.68;67.03
48810;BME280;40070;47.322;18.784;2023-01-29T07:49:28;1011.94;;;1.54;66.73
48810;BME280;40070;47.322;18.784;2023-01-29T07:51:30;1012.01;;;1.73;66.28
48810;BME280;40070;47.322;18.784;2023-01-29T07:53:33;1012.02;;;1.70;66.68
48810;BME280;40070;47.322;18.784;2023-01-29T07:55:35;1012.06;;;1.83;66.40
48810;BME280;40070;47.322;18.784;2023-01-29T07:57:38;1012.10;;;1.74;67.07
48810;BME280;40070;47.322;18.784;2023-01-29T07:59:40;1012.05;;;1.87;66.18
48810;BME280;40070;47.322;18.784;2023-01-29T08:01:42;1012.10;;;1.87;66.51
48810;BME280;40070;47.322;18.784;2023-01-29T08:03:45;1012.14;;;1.93;66.01
48810;BME280;40070;47.322;18.784;2023-01-29T08:05:47;1012.09;;;1.97;65.97
48810;BME280;40070;47.322;18.784;2023-01-29T08:07:52;1011.98;;;2.08;65.22
48810;BME280;40070;47.322;18.784;2023-01-29T08:09:54;1011.95;;;1.92;66.01
48810;BME280;40070;47.322;18.784;2023-01-29T08:11:57;1011.97;;;2.03;65.50
48810;BME280;40070;47.322;18.784;2023-01-29T08:13:59;1012.02;;;2.06;65.64
48810;BME280;40070;47.322;18.784;2023-01-29T08:16:02;1011.94;;;1.98;65.98
48810;BME280;40070;47.322;18.784;2023-01-29T08:18:05;1011.95;;;2.07;65.37
48810;BME280;40070;47.322;18.784;2023-01-29T08:20:08;1012.01;;;1.99;65.70
48810;BME280;40070;47.322;18.784;2023-01-29T08:22:10;1012.01;;;1.91;65.07
48810;BME280;40070;47.322;18.784;2023-01-29T08:24:12;1012.02;;;1.89;65.33
48810;BME280;40070;47.322;18.784;2023-01-29T08:26:15;1012.09;;;1.82;65.20
48810;BME280;40070;47.322;18.784;2023-01-29T08:28:17;1012.06;;;1.86;65.17
48810;BME280;40070;47.322;18.784;2023-01-29T08:30:19;1012.10;;;1.72;65.45
48810;BME280;40070;47.322;18.784;2023-01-29T08:32:22;1012.10;;;1.81;65.53
48810;BME280;40070;47.322;18.784;2023-01-29T08:34:24;1012.13;;;1.88;65.67
48810;BME280;40070;47.322;18.784;2023-01-29T08:36:27;1012.15;;;2.07;65.09
48810;BME280;40070;47.322;18.784;2023-01-29T08:38:29;1012.17;;;1.96;64.75
48810;BME280;40070;47.322;18.784;2023-01-29T08:40:32;1012.17;;;1.71;65.38
48810;BME280;40070;47.322;18.784;2023-01-29T08:42:35;1012.21;;;1.74;65.24
48810;BME280;40070;47.322;18.784;2023-01-29T08:44:37;1012.21;;;1.84;64.95
48810;BME280;40070;47.322;18.784;2023-01-29T08:46:39;1012.23;;;1.81;64.88
48810;BME280;40070;47.322;18.784;2023-01-29T08:48:42;1012.35;;;1.57;65.38
48810;BME280;40070;47.322;18.784;2023-01-29T08:50:44;1012.39;;;1.69;64.55
48810;BME280;40070;47.322;18.784;2023-01-29T08:52:46;1012.41;;;1.60;64.95
48810;BME280;40070;47.322;18.784;2023-01-29T08:54:49;1012.34;;;1.61;64.80
48810;BME280;40070;47.322;18.784;2023-01-29T08:56:51;1012.37;;;1.56;64.93
48810;BME280;40070;47.322;18.784;2023-01-29T08:58:53;1012.42;;;1.71;64.84
48810;BME280;40070;47.322;18.784;2023-01-29T09:00:56;1012.45;;;1.78;64.72
48810;BME280;40070;47.322;18.784;2023-01-29T09:03:06;1012.45;;;1.90;64.06
48810;BME280;40070;47.322;18.784;2023-01-29T09:05:08;1012.43;;;1.71;64.49
48810;BME280;40070;47.322;18.784;2023-01-29T09:07:11;1012.48;;;1.63;64.40
48810;BME280;40070;47.322;18.784;2023-01-29T09:09:13;1012.57;;;1.63;64.66
48810;BME280;40070;47.322;18.784;2023-01-29T09:11:15;1012.54;;;1.53;64.91
48810;BME280;40070;47.322;18.784;2023-01-29T09:13:18;1012.55;;;1.61;64.16
48810;BME280;40070;47.322;18.784;2023-01-29T09:15:20;1012.63;;;1.44;64.21
48810;BME280;40070;47.322;18.784;2023-01-29T09:17:23;1012.60;;;1.35;63.69
48810;BME280;40070;47.322;18.784;2023-01-29T09:19:25;1012.58;;;1.32;63.88
48810;BME280;40070;47.322;18.784;2023-01-29T09:21:27;1012.65;;;1.33;64.21
48810;BME280;40070;47.322;18.784;2023-01-29T09:23:30;1012.75;;;1.16;64.66
48810;BME280;40070;47.322;18.784;2023-01-29T09:25:32;1012.68;;;1.20;64.50
48810;BME280;40070;47.322;18.784;2023-01-29T09:27:35;1012.58;;;1.24;64.70
48810;BME280;40070;47.322;18.784;2023-01-29T09:29:37;1012.68;;;1.26;65.04
48810;BME280;40070;47.322;18.784;2023-01-29T09:31:39;1012.70;;;1.33;64.98
48810;BME280;40070;47.322;18.784;2023-01-29T09:33:42;1012.68;;;1.30;65.03
48810;BME280;40070;47.322;18.784;2023-01-29T09:35:44;1012.61;;;1.51;64.66
48810;BME280;40070;47.322;18.784;2023-01-29T09:37:47;1012.66;;;1.57;64.27
48810;BME280;40070;47.322;18.784;2023-01-29T09:39:49;1012.65;;;1.54;64.11
48810;BME280;40070;47.322;18.784;2023-01-29T09:41:55;1012.73;;;1.80;63.61
48810;BME280;40070;47.322;18.784;2023-01-29T09:44:01;1012.71;;;1.43;64.02
48810;BME280;40070;47.322;18.784;2023-01-29T09:46:05;1012.74;;;1.51;64.42
48810;BME280;40070;47.322;18.784;2023-01-29T09:48:09;1012.74;;;1.56;64.59
48810;BME280;40070;47.322;18.784;2023-01-29T09:50:16;1012.70;;;1.50;64.58
48810;BME280;40070;47.322;18.784;2023-01-29T09:52:21;1012.67;;;1.55;63.92
48810;BME280;40070;47.322;18.784;2023-01-29T09:54:24;1012.66;;;1.74;63.76
48810;BME280;40070;47.322;18.784;2023-01-29T09:56:29;1012.72;;;1.71;64.07
48810;BME280;40070;47.322;18.784;2023-01-29T09:58:35;1012.67;;;1.65;63.26
48810;BME280;40070;47.322;18.784;2023-01-29T10:00:50;1012.64;;;1.64;63.61
48810;BME280;40070;47.322;18.784;2023-01-29T10:08:00;1012.71;;;1.51;62.94
48810;BME280;40070;47.322;18.784;2023-01-29T10:10:10;1012.75;;;1.44;63.42
48810;BME280;40070;47.322;18.784;2023-01-29T10:12:16;1012.73;;;1.34;63.71
48810;BME280;40070;47.322;18.784;2023-01-29T10:16:45;1012.74;;;1.47;63.65
48810;BME280;40070;47.322;18.784;2023-01-29T10:23:32;1012.67;;;1.62;63.19
48810;BME280;40070;47.322;18.784;2023-01-29T10:25:35;1012.75;;;1.69;63.49
48810;BME280;40070;47.322;18.784;2023-01-29T10:27:41;1012.72;;;1.66;63.44
48810;BME280;40070;47.322;18.784;2023-01-29T10:29:47;1012.70;;;1.68;62.72
48810;BME280;40070;47.322;18.784;2023-01-29T10:31:53;1012.70;;;1.59;62.88
48810;BME280;40070;47.322;18.784;2023-01-29T10:34:01;1012.74;;;1.60;62.77
48810;BME280;40070;47.322;18.784;2023-01-29T10:36:07;1012.66;;;1.30;63.11
48810;BME280;40070;47.322;18.784;2023-01-29T10:40:38;1012.72;;;1.49;63.11
48810;BME280;40070;47.322;18.784;2023-01-29T10:42:52;1012.72;;;1.50;62.74
48810;BME280;40070;47.322;18.784;2023-01-29T10:51:59;1012.64;;;2.08;60.82
48810;BME280;40070;47.322;18.784;2023-01-29T10:54:54;1012.67;;;2.22;60.13
48810;BME280;40070;47.322;18.784;2023-01-29T10:58:42;1012.60;;;2.37;59.32
48810;BME280;40070;47.322;18.784;2023-01-29T11:00:48;1012.56;;;2.45;59.80
48810;BME280;40070;47.322;18.784;2023-01-29T11:02:50;1012.59;;;2.48;57.99
48810;BME280;40070;47.322;18.784;2023-01-29T11:04:53;1012.54;;;2.34;58.03
48810;BME280;40070;47.322;18.784;2023-01-29T11:06:55;1012.51;;;2.38;57.92
48810;BME280;40070;47.322;18.784;2023-01-29T11:11:18;1012.41;;;2.29;56.69
48810;BME280;40070;47.322;18.784;2023-01-29T11:13:22;1012.41;;;2.14;57.60
48810;BME280;40070;47.322;18.784;2023-01-29T11:15:28;1012.40;;;2.10;56.21
48810;BME280;40070;47.322;18.784;2023-01-29T11:17:32;1012.42;;;2.13;57.07
48810;BME280;40070;47.322;18.784;2023-01-29T11:19:36;1012.47;;;2.17;56.69
48810;BME280;40070;47.322;18.784;2023-01-29T11:24:06;1012.36;;;1.99;57.32
48810;BME280;40070;47.322;18.784;2023-01-29T11:26:13;1012.30;;;2.03;57.46
48810;BME280;40070;47.322;18.784;2023-01-29T11:29:03;1012.26;;;2.20;57.14
48810;BME280;40070;47.322;18.784;2023-01-29T11:30:34;1012.20;;;2.16;56.99
48810;BME280;40070;47.322;18.784;2023-01-29T11:32:38;1012.19;;;2.13;56.67
48810;BME280;40070;47.322;18.784;2023-01-29T11:37:02;1012.10;;;2.00;57.07
48810;BME280;40070;47.322;18.784;2023-01-29T11:39:16;1012.08;;;2.23;56.02
48810;BME280;40070;47.322;18.784;2023-01-29T11:41:18;1012.09;;;2.15;55.79
48810;BME280;40070;47.322;18.784;2023-01-29T11:43:22;1012.06;;;2.16;55.97
48810;BME280;40070;47.322;18.784;2023-01-29T11:45:29;1011.99;;;2.21;55.77
48810;BME280;40070;47.322;18.784;2023-01-29T11:47:31;1011.97;;;2.42;55.82
48810;BME280;40070;47.322;18.784;2023-01-29T11:49:34;1011.91;;;2.38;55.95
48810;BME280;40070;47.322;18.784;2023-01-29T11:51:37;1011.96;;;2.25;55.74
48810;BME280;40070;47.322;18.784;2023-01-29T11:53:42;1011.87;;;1.97;55.44
48810;BME280;40070;47.322;18.784;2023-01-29T11:55:45;1011.93;;;2.03;55.90
48810;BME280;40070;47.322;18.784;2023-01-29T11:57:57;1011.86;;;1.96;56.12
48810;BME280;40070;47.322;18.784;2023-01-29T12:00:06;1011.77;;;2.24;55.59
48810;BME280;40070;47.322;18.784;2023-01-29T12:02:29;1011.68;;;2.48;54.89
48810;BME280;40070;47.322;18.784;2023-01-29T12:04:33;1011.64;;;2.63;54.52